sensor_id;sensor_type;location;lat;lon;timestamp;temperature;humidity
66728;DHT22;53641;44.274;19.890;2022-07-23T00:01:29;24.10;64.50
66728;DHT22;53641;44.274;19.890;2022-07-23T00:03:56;24.00;64.70
66728;DHT22;53641;44.274;19.890;2022-07-23T00:06:22;23.90;64.70
66728;DHT22;53641;44.274;19.890;2022-07-23T00:08:48;24.00;64.90
66728;DHT22;53641;44.274;19.890;2022-07-23T00:11:15;24.00;64.70
66728;DHT22;53641;44.274;19.890;2022-07-23T00:13:40;24.00;64.70
66728;DHT22;53641;44.274;19.890;2022-07-23T00:16:07;23.90;64.80
66728;DHT22;53641;44.274;19.890;2022-07-23T00:18:33;23.90;64.80
66728;DHT22;53641;44.274;19.890;2022-07-23T00:20:58;23.90;65.00
66728;DHT22;53641;44.274;19.890;2022-07-23T00:23:24;23.80;64.80
66728;DHT22;53641;44.274;19.890;2022-07-23T00:25:51;23.80;65.10
66728;DHT22;53641;44.274;19.890;2022-07-23T00:28:17;23.70;65.00
66728;DHT22;53641;44.274;19.890;2022-07-23T00:30:45;23.70;65.00
66728;DHT22;53641;44.274;19.890;2022-07-23T00:33:11;23.70;65.10
66728;DHT22;53641;44.274;19.890;2022-07-23T00:35:39;23.80;65.00
66728;DHT22;53641;44.274;19.890;2022-07-23T00:38:07;23.70;65.20
66728;DHT22;53641;44.274;19.890;2022-07-23T00:40:33;23.70;65.40
66728;DHT22;53641;44.274;19.890;2022-07-23T00:42:59;23.70;65.50
66728;DHT22;53641;44.274;19.890;2022-07-23T00:45:26;23.60;65.10
66728;DHT22;53641;44.274;19.890;2022-07-23T00:47:52;23.60;65.20
66728;DHT22;53641;44.274;19.890;2022-07-23T00:50:18;23.50;65.40
66728;DHT22;53641;44.274;19.890;2022-07-23T00:52:44;23.60;65.50
66728;DHT22;53641;44.274;19.890;2022-07-23T00:55:11;23.60;65.50
66728;DHT22;53641;44.274;19.890;2022-07-23T00:57:38;23.50;65.20
66728;DHT22;53641;44.274;19.890;2022-07-23T01:00:06;23.50;65.60
66728;DHT22;53641;44.274;19.890;2022-07-23T01:02:33;23.40;65.70
66728;DHT22;53641;44.274;19.890;2022-07-23T01:04:58;23.40;65.90
66728;DHT22;53641;44.274;19.890;2022-07-23T01:07:24;23.40;66.10
66728;DHT22;53641;44.274;19.890;2022-07-23T01:09:51;23.40;65.70
66728;DHT22;53641;44.274;19.890;2022-07-23T01:12:18;23.30;65.80
66728;DHT22;53641;44.274;19.890;2022-07-23T01:14:43;23.30;65.90
66728;DHT22;53641;44.274;19.890;2022-07-23T01:17:09;23.20;65.90
66728;DHT22;53641;44.274;19.890;2022-07-23T01:19:35;23.30;66.00
66728;DHT22;53641;44.274;19.890;2022-07-23T01:22:04;23.30;66.20
66728;DHT22;53641;44.274;19.890;2022-07-23T01:24:31;23.30;66.20
66728;DHT22;53641;44.274;19.890;2022-07-23T01:26:56;23.30;66.40
66728;DHT22;53641;44.274;19.890;2022-07-23T01:29:22;23.30;65.80
66728;DHT22;53641;44.274;19.890;2022-07-23T01:31:48;23.30;65.80
66728;DHT22;53641;44.274;19.890;2022-07-23T01:34:14;23.30;65.50
66728;DHT22;53641;44.274;19.890;2022-07-23T01:36:40;23.30;65.50
66728;DHT22;53641;44.274;19.890;2022-07-23T01:39:07;23.20;65.60
66728;DHT22;53641;44.274;19.890;2022-07-23T01:41:33;23.20;65.50
66728;DHT22;53641;44.274;19.890;2022-07-23T01:43:59;23.10;65.80
66728;DHT22;53641;44.274;19.890;2022-07-23T01:46:25;23.00;65.90
66728;DHT22;53641;44.274;19.890;2022-07-23T01:48:51;23.00;65.90
66728;DHT22;53641;44.274;19.890;2022-07-23T01:51:17;23.00;66.00
66728;DHT22;53641;44.274;19.890;2022-07-23T01:53:43;22.90;66.00
66728;DHT22;53641;44.274;19.890;2022-07-23T01:56:09;22.80;66.30
66728;DHT22;53641;44.274;19.890;2022-07-23T01:58:34;22.80;66.40
66728;DHT22;53641;44.274;19.890;2022-07-23T02:01:00;22.90;66.30
66728;DHT22;53641;44.274;19.890;2022-07-23T02:03:26;22.90;66.20
66728;DHT22;53641;44.274;19.890;2022-07-23T02:05:53;22.90;66.50
66728;DHT22;53641;44.274;19.890;2022-07-23T02:08:19;22.90;66.70
66728;DHT22;53641;44.274;19.890;2022-07-23T02:10:45;22.80;67.00
66728;DHT22;53641;44.274;19.890;2022-07-23T02:13:11;22.70;66.80
66728;DHT22;53641;44.274;19.890;2022-07-23T02:15:37;22.60;67.00
66728;DHT22;53641;44.274;19.890;2022-07-23T02:18:03;22.60;67.00
66728;DHT22;53641;44.274;19.890;2022-07-23T02:20:29;22.50;67.10
66728;DHT22;53641;44.274;19.890;2022-07-23T02:22:55;22.50;67.50
66728;DHT22;53641;44.274;19.890;2022-07-23T02:25:20;22.60;67.10
66728;DHT22;53641;44.274;19.890;2022-07-23T02:27:46;22.50;67.50
66728;DHT22;53641;44.274;19.890;2022-07-23T02:30:12;22.50;67.60
66728;DHT22;53641;44.274;19.890;2022-07-23T02:32:38;22.50;67.50
66728;DHT22;53641;44.274;19.890;2022-07-23T02:35:05;22.50;67.60
66728;DHT22;53641;44.274;19.890;2022-07-23T02:37:31;22.50;68.20
66728;DHT22;53641;44.274;19.890;2022-07-23T02:39:57;22.40;67.80
66728;DHT22;53641;44.274;19.890;2022-07-23T02:42:23;22.30;68.00
66728;DHT22;53641;44.274;19.890;2022-07-23T02:44:49;22.30;68.00
66728;DHT22;53641;44.274;19.890;2022-07-23T02:47:16;22.30;68.10
66728;DHT22;53641;44.274;19.890;2022-07-23T02:49:41;22.40;67.90
66728;DHT22;53641;44.274;19.890;2022-07-23T02:52:07;22.30;68.00
66728;DHT22;53641;44.274;19.890;2022-07-23T02:54:35;22.30;68.00
66728;DHT22;53641;44.274;19.890;2022-07-23T02:57:01;22.30;68.70
66728;DHT22;53641;44.274;19.890;2022-07-23T02:59:27;22.30;68.00
66728;DHT22;53641;44.274;19.890;2022-07-23T03:01:53;22.20;67.50
66728;DHT22;53641;44.274;19.890;2022-07-23T03:04:19;22.20;68.30
66728;DHT22;53641;44.274;19.890;2022-07-23T03:06:44;22.10;68.30
66728;DHT22;53641;44.274;19.890;2022-07-23T03:09:10;22.10;68.40
66728;DHT22;53641;44.274;19.890;2022-07-23T03:11:36;22.10;68.40
66728;DHT22;53641;44.274;19.890;2022-07-23T03:14:02;22.00;68.40
66728;DHT22;53641;44.274;19.890;2022-07-23T03:16:27;21.90;68.50
66728;DHT22;53641;44.274;19.890;2022-07-23T03:18:53;22.00;68.80
66728;DHT22;53641;44.274;19.890;2022-07-23T03:21:19;22.00;68.80
66728;DHT22;53641;44.274;19.890;2022-07-23T03:23:50;22.00;68.70
66728;DHT22;53641;44.274;19.890;2022-07-23T03:26:15;21.90;68.80
66728;DHT22;53641;44.274;19.890;2022-07-23T03:28:41;21.90;68.90
66728;DHT22;53641;44.274;19.890;2022-07-23T03:31:07;22.00;68.90
66728;DHT22;53641;44.274;19.890;2022-07-23T03:33:33;22.00;68.90
66728;DHT22;53641;44.274;19.890;2022-07-23T03:35:59;21.90;68.90
66728;DHT22;53641;44.274;19.890;2022-07-23T03:38:25;22.00;69.20
66728;DHT22;53641;44.274;19.890;2022-07-23T03:40:50;22.00;69.10
66728;DHT22;53641;44.274;19.890;2022-07-23T03:43:16;22.10;68.80
66728;DHT22;53641;44.274;19.890;2022-07-23T03:45:42;22.10;68.70
66728;DHT22;53641;44.274;19.890;2022-07-23T03:48:08;22.00;68.70
66728;DHT22;53641;44.274;19.890;2022-07-23T03:50:34;22.10;68.70
66728;DHT22;53641;44.274;19.890;2022-07-23T03:53:00;22.10;68.60
66728;DHT22;53641;44.274;19.890;2022-07-23T03:55:26;22.10;68.60
66728;DHT22;53641;44.274;19.890;2022-07-23T03:57:51;22.10;68.50
66728;DHT22;53641;44.274;19.890;2022-07-23T04:00:17;22.10;68.80
66728;DHT22;53641;44.274;19.890;2022-07-23T04:02:43;22.10;68.70
66728;DHT22;53641;44.274;19.890;2022-07-23T04:05:09;22.10;68.70
66728;DHT22;53641;44.274;19.890;2022-07-23T04:07:35;22.20;68.60
66728;DHT22;53641;44.274;19.890;2022-07-23T04:10:01;22.10;68.30
66728;DHT22;53641;44.274;19.890;2022-07-23T04:12:26;22.30;68.50
66728;DHT22;53641;44.274;19.890;2022-07-23T04:14:52;22.30;68.50
66728;DHT22;53641;44.274;19.890;2022-07-23T04:17:18;22.30;68.20
66728;DHT22;53641;44.274;19.890;2022-07-23T04:19:44;22.30;68.70
66728;DHT22;53641;44.274;19.890;2022-07-23T04:22:11;22.30;68.70
66728;DHT22;53641;44.274;19.890;2022-07-23T04:24:37;22.30;68.60
66728;DHT22;53641;44.274;19.890;2022-07-23T04:27:03;22.50;68.60
66728;DHT22;53641;44.274;19.890;2022-07-23T04:29:29;22.50;68.10
66728;DHT22;53641;44.274;19.890;2022-07-23T04:31:55;22.60;68.10
66728;DHT22;53641;44.274;19.890;2022-07-23T04:34:20;22.70;68.30
66728;DHT22;53641;44.274;19.890;2022-07-23T04:36:47;22.70;68.00
66728;DHT22;53641;44.274;19.890;2022-07-23T04:39:13;22.80;68.20
66728;DHT22;53641;44.274;19.890;2022-07-23T04:41:39;22.90;67.90
66728;DHT22;53641;44.274;19.890;2022-07-23T04:44:05;22.90;67.20
66728;DHT22;53641;44.274;19.890;2022-07-23T04:46:31;22.90;67.10
66728;DHT22;53641;44.274;19.890;2022-07-23T04:48:56;23.00;67.00
66728;DHT22;53641;44.274;19.890;2022-07-23T04:51:22;23.20;67.00
66728;DHT22;53641;44.274;19.890;2022-07-23T04:53:48;23.40;67.10
66728;DHT22;53641;44.274;19.890;2022-07-23T04:56:15;23.60;66.40
66728;DHT22;53641;44.274;19.890;2022-07-23T04:58:40;23.70;66.50
66728;DHT22;53641;44.274;19.890;2022-07-23T05:01:06;23.80;65.90
66728;DHT22;53641;44.274;19.890;2022-07-23T05:03:32;23.90;65.90
66728;DHT22;53641;44.274;19.890;2022-07-23T05:05:58;24.00;66.10
66728;DHT22;53641;44.274;19.890;2022-07-23T05:08:24;24.00;66.00
66728;DHT22;53641;44.274;19.890;2022-07-23T05:10:49;24.20;66.10
66728;DHT22;53641;44.274;19.890;2022-07-23T05:13:15;24.30;65.90
66728;DHT22;53641;44.274;19.890;2022-07-23T05:15:42;24.40;65.60
66728;DHT22;53641;44.274;19.890;2022-07-23T05:18:07;24.80;65.50
66728;DHT22;53641;44.274;19.890;2022-07-23T05:20:33;24.90;65.10
66728;DHT22;53641;44.274;19.890;2022-07-23T05:22:59;25.00;64.90
66728;DHT22;53641;44.274;19.890;2022-07-23T05:25:25;25.00;64.80
66728;DHT22;53641;44.274;19.890;2022-07-23T05:27:51;25.00;65.10
66728;DHT22;53641;44.274;19.890;2022-07-23T05:30:16;25.10;65.00
66728;DHT22;53641;44.274;19.890;2022-07-23T05:32:42;25.10;65.30
66728;DHT22;53641;44.274;19.890;2022-07-23T05:35:08;25.20;65.60
66728;DHT22;53641;44.274;19.890;2022-07-23T05:37:34;25.40;65.30
66728;DHT22;53641;44.274;19.890;2022-07-23T05:40:01;25.50;65.20
66728;DHT22;53641;44.274;19.890;2022-07-23T05:42:27;25.60;64.80
66728;DHT22;53641;44.274;19.890;2022-07-23T05:44:53;25.80;64.70
66728;DHT22;53641;44.274;19.890;2022-07-23T05:47:19;26.00;65.00
66728;DHT22;53641;44.274;19.890;2022-07-23T05:49:44;26.10;64.20
66728;DHT22;53641;44.274;19.890;2022-07-23T05:52:10;26.40;64.10
66728;DHT22;53641;44.274;19.890;2022-07-23T05:54:36;27.10;63.60
66728;DHT22;53641;44.274;19.890;2022-07-23T05:57:02;28.00;62.10
66728;DHT22;53641;44.274;19.890;2022-07-23T05:59:29;28.60;61.10
66728;DHT22;53641;44.274;19.890;2022-07-23T06:01:55;29.70;60.00
66728;DHT22;53641;44.274;19.890;2022-07-23T06:04:20;30.90;58.40
66728;DHT22;53641;44.274;19.890;2022-07-23T06:06:46;31.70;56.70
66728;DHT22;53641;44.274;19.890;2022-07-23T06:09:12;32.90;55.40
66728;DHT22;53641;44.274;19.890;2022-07-23T06:11:41;34.20;54.30
66728;DHT22;53641;44.274;19.890;2022-07-23T06:14:07;35.20;53.20
66728;DHT22;53641;44.274;19.890;2022-07-23T06:16:33;36.40;52.10
66728;DHT22;53641;44.274;19.890;2022-07-23T06:18:59;37.40;50.40
66728;DHT22;53641;44.274;19.890;2022-07-23T06:21:24;37.90;49.70
66728;DHT22;53641;44.274;19.890;2022-07-23T06:23:50;39.10;50.20
66728;DHT22;53641;44.274;19.890;2022-07-23T06:26:16;39.90;48.50
66728;DHT22;53641;44.274;19.890;2022-07-23T06:28:42;40.60;48.00
66728;DHT22;53641;44.274;19.890;2022-07-23T06:31:07;41.10;47.10
66728;DHT22;53641;44.274;19.890;2022-07-23T06:33:34;41.80;47.60
66728;DHT22;53641;44.274;19.890;2022-07-23T06:36:00;42.30;46.10
66728;DHT22;53641;44.274;19.890;2022-07-23T06:38:25;43.00;45.90
66728;DHT22;53641;44.274;19.890;2022-07-23T06:40:51;43.70;45.70
66728;DHT22;53641;44.274;19.890;2022-07-23T06:43:17;44.20;44.90
66728;DHT22;53641;44.274;19.890;2022-07-23T06:45:43;44.70;45.40
66728;DHT22;53641;44.274;19.890;2022-07-23T06:48:08;44.40;44.50
66728;DHT22;53641;44.274;19.890;2022-07-23T06:50:34;44.80;45.10
66728;DHT22;53641;44.274;19.890;2022-07-23T06:53:00;45.40;44.50
66728;DHT22;53641;44.274;19.890;2022-07-23T06:55:26;45.80;44.10
66728;DHT22;53641;44.274;19.890;2022-07-23T06:57:52;45.50;44.20
66728;DHT22;53641;44.274;19.890;2022-07-23T07:00:18;44.20;44.80
66728;DHT22;53641;44.274;19.890;2022-07-23T07:02:44;44.20;45.40
66728;DHT22;53641;44.274;19.890;2022-07-23T07:05:10;44.90;45.10
66728;DHT22;53641;44.274;19.890;2022-07-23T07:07:36;44.90;44.60
66728;DHT22;53641;44.274;19.890;2022-07-23T07:10:03;44.90;44.80
66728;DHT22;53641;44.274;19.890;2022-07-23T07:12:29;44.10;45.40
66728;DHT22;53641;44.274;19.890;2022-07-23T07:14:54;44.60;45.20
66728;DHT22;53641;44.274;19.890;2022-07-23T07:17:20;45.10;44.00
66728;DHT22;53641;44.274;19.890;2022-07-23T07:19:46;45.80;44.50
66728;DHT22;53641;44.274;19.890;2022-07-23T07:22:12;46.00;44.10
66728;DHT22;53641;44.274;19.890;2022-07-23T07:24:38;45.80;44.20
66728;DHT22;53641;44.274;19.890;2022-07-23T07:27:04;46.50;44.50
66728;DHT22;53641;44.274;19.890;2022-07-23T07:29:29;47.00;43.80
66728;DHT22;53641;44.274;19.890;2022-07-23T07:31:55;47.70;43.50
66728;DHT22;53641;44.274;19.890;2022-07-23T07:34:21;48.00;43.50
66728;DHT22;53641;44.274;19.890;2022-07-23T07:36:47;47.60;43.50
66728;DHT22;53641;44.274;19.890;2022-07-23T07:39:12;47.10;43.60
66728;DHT22;53641;44.274;19.890;2022-07-23T07:41:39;47.30;43.90
66728;DHT22;53641;44.274;19.890;2022-07-23T07:44:08;46.80;43.90
66728;DHT22;53641;44.274;19.890;2022-07-23T07:46:34;46.10;43.50
66728;DHT22;53641;44.274;19.890;2022-07-23T07:48:59;47.30;43.70
66728;DHT22;53641;44.274;19.890;2022-07-23T07:51:26;47.90;43.00
66728;DHT22;53641;44.274;19.890;2022-07-23T07:53:52;49.10;43.20
66728;DHT22;53641;44.274;19.890;2022-07-23T07:56:18;49.20;41.90
66728;DHT22;53641;44.274;19.890;2022-07-23T07:58:43;48.50;42.60
66728;DHT22;53641;44.274;19.890;2022-07-23T08:01:09;49.80;42.10
66728;DHT22;53641;44.274;19.890;2022-07-23T08:03:35;50.60;41.20
66728;DHT22;53641;44.274;19.890;2022-07-23T08:06:01;50.80;41.70
66728;DHT22;53641;44.274;19.890;2022-07-23T08:08:27;50.20;40.60
66728;DHT22;53641;44.274;19.890;2022-07-23T08:10:52;49.20;40.90
66728;DHT22;53641;44.274;19.890;2022-07-23T08:13:18;49.30;41.00
66728;DHT22;53641;44.274;19.890;2022-07-23T08:15:44;49.70;40.90
66728;DHT22;53641;44.274;19.890;2022-07-23T08:18:10;49.30;41.40
66728;DHT22;53641;44.274;19.890;2022-07-23T08:20:36;50.00;41.30
66728;DHT22;53641;44.274;19.890;2022-07-23T08:23:06;51.30;41.30
66728;DHT22;53641;44.274;19.890;2022-07-23T08:25:35;51.60;40.10
66728;DHT22;53641;44.274;19.890;2022-07-23T08:28:03;51.50;40.30
66728;DHT22;53641;44.274;19.890;2022-07-23T08:30:30;52.70;40.10
66728;DHT22;53641;44.274;19.890;2022-07-23T08:33:00;52.90;39.20
66728;DHT22;53641;44.274;19.890;2022-07-23T08:35:34;52.10;39.60
66728;DHT22;53641;44.274;19.890;2022-07-23T08:38:03;53.20;39.20
66728;DHT22;53641;44.274;19.890;2022-07-23T08:40:34;53.50;38.90
66728;DHT22;53641;44.274;19.890;2022-07-23T08:43:03;52.90;38.90
66728;DHT22;53641;44.274;19.890;2022-07-23T08:45:30;53.40;38.50
66728;DHT22;53641;44.274;19.890;2022-07-23T08:47:57;54.20;39.10
66728;DHT22;53641;44.274;19.890;2022-07-23T08:50:26;51.80;38.50
66728;DHT22;53641;44.274;19.890;2022-07-23T08:52:53;50.70;39.60
66728;DHT22;53641;44.274;19.890;2022-07-23T08:55:21;51.00;39.30
66728;DHT22;53641;44.274;19.890;2022-07-23T08:57:52;50.90;39.60
66728;DHT22;53641;44.274;19.890;2022-07-23T09:00:20;51.60;39.40
66728;DHT22;53641;44.274;19.890;2022-07-23T09:02:46;52.60;38.60
66728;DHT22;53641;44.274;19.890;2022-07-23T09:05:13;53.00;38.10
66728;DHT22;53641;44.274;19.890;2022-07-23T09:08:07;53.00;37.90
66728;DHT22;53641;44.274;19.890;2022-07-23T09:10:53;51.90;37.70
66728;DHT22;53641;44.274;19.890;2022-07-23T09:13:36;52.20;37.80
66728;DHT22;53641;44.274;19.890;2022-07-23T09:16:13;52.00;38.00
66728;DHT22;53641;44.274;19.890;2022-07-23T09:18:48;52.30;37.00
66728;DHT22;53641;44.274;19.890;2022-07-23T09:21:17;51.60;37.50
66728;DHT22;53641;44.274;19.890;2022-07-23T09:23:45;51.60;37.00
66728;DHT22;53641;44.274;19.890;2022-07-23T09:26:20;52.10;36.50
66728;DHT22;53641;44.274;19.890;2022-07-23T09:29:12;52.10;36.40
66728;DHT22;53641;44.274;19.890;2022-07-23T09:31:52;50.00;37.10
66728;DHT22;53641;44.274;19.890;2022-07-23T09:34:30;49.40;37.60
66728;DHT22;53641;44.274;19.890;2022-07-23T09:37:09;47.90;38.20
66728;DHT22;53641;44.274;19.890;2022-07-23T09:39:36;46.80;38.10
66728;DHT22;53641;44.274;19.890;2022-07-23T09:42:16;45.10;39.10
66728;DHT22;53641;44.274;19.890;2022-07-23T09:44:44;44.30;39.30
66728;DHT22;53641;44.274;19.890;2022-07-23T09:47:10;44.30;39.30
66728;DHT22;53641;44.274;19.890;2022-07-23T09:49:36;44.40;39.40
66728;DHT22;53641;44.274;19.890;2022-07-23T09:52:02;44.20;38.90
66728;DHT22;53641;44.274;19.890;2022-07-23T09:54:31;44.30;39.30
66728;DHT22;53641;44.274;19.890;2022-07-23T09:57:02;44.00;39.00
66728;DHT22;53641;44.274;19.890;2022-07-23T09:59:32;42.90;39.70
66728;DHT22;53641;44.274;19.890;2022-07-23T10:01:59;41.80;40.90
66728;DHT22;53641;44.274;19.890;2022-07-23T10:04:27;41.30;40.70
66728;DHT22;53641;44.274;19.890;2022-07-23T10:06:55;40.60;41.90
66728;DHT22;53641;44.274;19.890;2022-07-23T10:09:24;40.00;42.20
66728;DHT22;53641;44.274;19.890;2022-07-23T10:11:50;39.50;43.20
66728;DHT22;53641;44.274;19.890;2022-07-23T10:14:18;39.30;42.90
66728;DHT22;53641;44.274;19.890;2022-07-23T10:16:44;38.50;43.40
66728;DHT22;53641;44.274;19.890;2022-07-23T10:19:10;38.50;44.10
66728;DHT22;53641;44.274;19.890;2022-07-23T10:21:46;38.40;43.50
66728;DHT22;53641;44.274;19.890;2022-07-23T10:25:32;38.20;43.60
66728;DHT22;53641;44.274;19.890;2022-07-23T10:27:36;37.90;44.50
66728;DHT22;53641;44.274;19.890;2022-07-23T10:30:10;38.10;43.90
66728;DHT22;53641;44.274;19.890;2022-07-23T10:32:45;38.20;43.90
66728;DHT22;53641;44.274;19.890;2022-07-23T10:35:37;38.10;44.80
66728;DHT22;53641;44.274;19.890;2022-07-23T10:38:20;37.70;44.30
66728;DHT22;53641;44.274;19.890;2022-07-23T10:40:54;37.50;44.70
66728;DHT22;53641;44.274;19.890;2022-07-23T10:43:21;37.50;44.90
66728;DHT22;53641;44.274;19.890;2022-07-23T10:45:47;37.40;45.60
66728;DHT22;53641;44.274;19.890;2022-07-23T10:48:16;37.40;44.70
66728;DHT22;53641;44.274;19.890;2022-07-23T10:50:44;37.20;44.70
66728;DHT22;53641;44.274;19.890;2022-07-23T10:53:53;37.30;45.50
66728;DHT22;53641;44.274;19.890;2022-07-23T10:57:10;37.40;45.00
66728;DHT22;53641;44.274;19.890;2022-07-23T10:59:25;37.50;45.50
66728;DHT22;53641;44.274;19.890;2022-07-23T11:01:51;37.60;44.80
66728;DHT22;53641;44.274;19.890;2022-07-23T11:04:17;37.70;46.20
66728;DHT22;53641;44.274;19.890;2022-07-23T11:07:06;37.40;44.80
66728;DHT22;53641;44.274;19.890;2022-07-23T11:09:43;37.30;45.50
66728;DHT22;53641;44.274;19.890;2022-07-23T11:12:31;37.10;44.70
66728;DHT22;53641;44.274;19.890;2022-07-23T11:15:09;37.20;44.90
66728;DHT22;53641;44.274;19.890;2022-07-23T11:17:58;37.20;46.10
66728;DHT22;53641;44.274;19.890;2022-07-23T11:20:25;37.20;45.40
66728;DHT22;53641;44.274;19.890;2022-07-23T11:22:55;37.30;45.70
66728;DHT22;53641;44.274;19.890;2022-07-23T11:25:32;37.20;45.80
66728;DHT22;53641;44.274;19.890;2022-07-23T11:28:16;37.10;45.50
66728;DHT22;53641;44.274;19.890;2022-07-23T11:30:44;37.20;45.80
66728;DHT22;53641;44.274;19.890;2022-07-23T11:33:19;37.30;45.80
66728;DHT22;53641;44.274;19.890;2022-07-23T11:35:47;37.30;45.90
66728;DHT22;53641;44.274;19.890;2022-07-23T11:38:15;37.40;46.00
66728;DHT22;53641;44.274;19.890;2022-07-23T11:40:44;37.60;46.10
66728;DHT22;53641;44.274;19.890;2022-07-23T11:43:11;37.60;45.40
66728;DHT22;53641;44.274;19.890;2022-07-23T11:45:41;37.60;45.30
66728;DHT22;53641;44.274;19.890;2022-07-23T11:48:15;37.60;45.80
66728;DHT22;53641;44.274;19.890;2022-07-23T11:50:41;37.50;45.70
66728;DHT22;53641;44.274;19.890;2022-07-23T11:53:07;37.60;45.30
66728;DHT22;53641;44.274;19.890;2022-07-23T11:55:33;37.60;45.30
66728;DHT22;53641;44.274;19.890;2022-07-23T11:57:59;37.60;44.80
66728;DHT22;53641;44.274;19.890;2022-07-23T12:00:28;37.60;45.10
66728;DHT22;53641;44.274;19.890;2022-07-23T12:02:57;37.50;45.00
66728;DHT22;53641;44.274;19.890;2022-07-23T12:05:27;37.50;45.20
66728;DHT22;53641;44.274;19.890;2022-07-23T12:07:56;37.50;45.20
66728;DHT22;53641;44.274;19.890;2022-07-23T12:10:25;37.60;45.60
66728;DHT22;53641;44.274;19.890;2022-07-23T12:13:00;37.70;45.50
66728;DHT22;53641;44.274;19.890;2022-07-23T12:15:29;37.70;45.00
66728;DHT22;53641;44.274;19.890;2022-07-23T12:17:57;37.60;45.50
66728;DHT22;53641;44.274;19.890;2022-07-23T12:20:28;37.50;45.50
66728;DHT22;53641;44.274;19.890;2022-07-23T12:22:59;37.50;45.10
66728;DHT22;53641;44.274;19.890;2022-07-23T12:25:31;37.50;45.00
66728;DHT22;53641;44.274;19.890;2022-07-23T12:28:08;37.60;45.50
66728;DHT22;53641;44.274;19.890;2022-07-23T12:30:39;37.60;44.70
66728;DHT22;53641;44.274;19.890;2022-07-23T12:33:06;37.50;44.80
66728;DHT22;53641;44.274;19.890;2022-07-23T12:35:41;37.50;44.70
66728;DHT22;53641;44.274;19.890;2022-07-23T12:38:12;37.50;44.80
66728;DHT22;53641;44.274;19.890;2022-07-23T12:40:56;37.60;45.40
66728;DHT22;53641;44.274;19.890;2022-07-23T12:43:26;37.70;46.00
66728;DHT22;53641;44.274;19.890;2022-07-23T12:45:56;37.60;45.20
66728;DHT22;53641;44.274;19.890;2022-07-23T12:48:49;37.60;45.00
66728;DHT22;53641;44.274;19.890;2022-07-23T12:51:20;37.70;44.90
66728;DHT22;53641;44.274;19.890;2022-07-23T12:53:49;37.60;45.20
66728;DHT22;53641;44.274;19.890;2022-07-23T12:56:17;37.50;44.50
66728;DHT22;53641;44.274;19.890;2022-07-23T12:58:59;37.50;44.60
66728;DHT22;53641;44.274;19.890;2022-07-23T13:01:34;37.50;44.90
66728;DHT22;53641;44.274;19.890;2022-07-23T13:04:05;37.60;44.80
66728;DHT22;53641;44.274;19.890;2022-07-23T13:06:34;37.60;44.60
66728;DHT22;53641;44.274;19.890;2022-07-23T13:09:01;37.60;45.40
66728;DHT22;53641;44.274;19.890;2022-07-23T13:11:27;37.70;44.60
66728;DHT22;53641;44.274;19.890;2022-07-23T13:13:53;37.60;44.10
66728;DHT22;53641;44.274;19.890;2022-07-23T13:16:19;37.60;44.50
66728;DHT22;53641;44.274;19.890;2022-07-23T13:18:45;37.50;44.50
66728;DHT22;53641;44.274;19.890;2022-07-23T13:21:11;37.50;44.90
66728;DHT22;53641;44.274;19.890;2022-07-23T13:23:36;37.50;45.00
66728;DHT22;53641;44.274;19.890;2022-07-23T13:26:03;37.50;44.50
66728;DHT22;53641;44.274;19.890;2022-07-23T13:28:29;37.60;44.70
66728;DHT22;53641;44.274;19.890;2022-07-23T13:30:55;37.50;44.20
66728;DHT22;53641;44.274;19.890;2022-07-23T13:33:23;37.50;44.50
66728;DHT22;53641;44.274;19.890;2022-07-23T13:35:51;37.50;44.60
66728;DHT22;53641;44.274;19.890;2022-07-23T13:38:18;37.50;44.00
66728;DHT22;53641;44.274;19.890;2022-07-23T13:40:46;37.50;44.30
66728;DHT22;53641;44.274;19.890;2022-07-23T13:43:14;37.40;44.80
66728;DHT22;53641;44.274;19.890;2022-07-23T13:45:41;37.30;44.20
66728;DHT22;53641;44.274;19.890;2022-07-23T13:48:10;37.20;44.50
66728;DHT22;53641;44.274;19.890;2022-07-23T13:50:36;37.20;45.00
66728;DHT22;53641;44.274;19.890;2022-07-23T13:53:07;37.20;45.40
66728;DHT22;53641;44.274;19.890;2022-07-23T13:55:35;37.30;44.40
66728;DHT22;53641;44.274;19.890;2022-07-23T13:58:01;37.30;44.40
66728;DHT22;53641;44.274;19.890;2022-07-23T14:00:28;37.30;44.80
66728;DHT22;53641;44.274;19.890;2022-07-23T14:02:56;37.30;44.20
66728;DHT22;53641;44.274;19.890;2022-07-23T14:05:22;37.40;44.60
66728;DHT22;53641;44.274;19.890;2022-07-23T14:07:47;37.40;44.60
66728;DHT22;53641;44.274;19.890;2022-07-23T14:10:16;37.40;44.10
66728;DHT22;53641;44.274;19.890;2022-07-23T14:12:43;37.50;44.20
66728;DHT22;53641;44.274;19.890;2022-07-23T14:15:09;37.40;44.50
66728;DHT22;53641;44.274;19.890;2022-07-23T14:17:41;37.40;44.30
66728;DHT22;53641;44.274;19.890;2022-07-23T14:20:07;37.40;45.00
66728;DHT22;53641;44.274;19.890;2022-07-23T14:22:34;37.50;44.60
66728;DHT22;53641;44.274;19.890;2022-07-23T14:25:00;37.50;44.60
66728;DHT22;53641;44.274;19.890;2022-07-23T14:27:27;37.40;44.30
66728;DHT22;53641;44.274;19.890;2022-07-23T14:29:54;37.40;44.60
66728;DHT22;53641;44.274;19.890;2022-07-23T14:32:20;37.30;44.40
66728;DHT22;53641;44.274;19.890;2022-07-23T14:34:46;37.30;45.00
66728;DHT22;53641;44.274;19.890;2022-07-23T14:37:12;37.30;45.10
66728;DHT22;53641;44.274;19.890;2022-07-23T14:39:39;37.30;44.50
66728;DHT22;53641;44.274;19.890;2022-07-23T14:42:06;37.30;44.90
66728;DHT22;53641;44.274;19.890;2022-07-23T14:44:32;37.30;44.20
66728;DHT22;53641;44.274;19.890;2022-07-23T14:46:57;37.30;44.30
66728;DHT22;53641;44.274;19.890;2022-07-23T14:49:23;37.30;44.50
66728;DHT22;53641;44.274;19.890;2022-07-23T14:51:49;37.20;44.60
66728;DHT22;53641;44.274;19.890;2022-07-23T14:54:15;37.30;44.40
66728;DHT22;53641;44.274;19.890;2022-07-23T14:56:41;37.20;44.50
66728;DHT22;53641;44.274;19.890;2022-07-23T14:59:07;37.20;44.80
66728;DHT22;53641;44.274;19.890;2022-07-23T15:01:34;37.20;44.80
66728;DHT22;53641;44.274;19.890;2022-07-23T15:04:00;37.20;45.10
66728;DHT22;53641;44.274;19.890;2022-07-23T15:06:26;37.20;45.20
66728;DHT22;53641;44.274;19.890;2022-07-23T15:08:52;37.20;44.70
66728;DHT22;53641;44.274;19.890;2022-07-23T15:11:18;37.10;44.70
66728;DHT22;53641;44.274;19.890;2022-07-23T15:13:43;37.20;45.40
66728;DHT22;53641;44.274;19.890;2022-07-23T15:16:09;37.10;44.80
66728;DHT22;53641;44.274;19.890;2022-07-23T15:18:35;37.10;44.80
66728;DHT22;53641;44.274;19.890;2022-07-23T15:21:01;37.00;45.00